createdAt,value
2023-03-29T00:00:31.372Z,9.55
2023-03-29T00:02:57.810Z,9.66
2023-03-29T00:05:25.349Z,9.00
2023-03-29T00:08:01.736Z,9.86
2023-03-29T00:10:28.117Z,10.01
2023-03-29T00:12:54.482Z,9.60
2023-03-29T00:15:20.990Z,9.80
2023-03-29T00:17:47.398Z,9.53
2023-03-29T00:20:13.797Z,9.66
2023-03-29T00:22:42.082Z,9.70
2023-03-29T00:25:08.615Z,9.49
2023-03-29T00:27:34.981Z,9.53
2023-03-29T00:30:04.061Z,9.80
2023-03-29T00:32:30.895Z,9.20
2023-03-29T00:34:57.317Z,9.22
2023-03-29T00:37:26.765Z,9.75
2023-03-29T00:39:53.182Z,9.78
2023-03-29T00:42:20.223Z,9.63
2023-03-29T00:44:46.723Z,9.66
2023-03-29T00:47:13.210Z,9.81
2023-03-29T00:49:39.816Z,9.33
2023-03-29T00:52:06.560Z,9.34
2023-03-29T00:54:32.973Z,9.58
2023-03-29T00:57:03.912Z,9.74
2023-03-29T00:59:32.708Z,9.35
2023-03-29T01:01:59.825Z,9.34
2023-03-29T01:04:29.349Z,9.27
2023-03-29T01:06:55.936Z,9.34
2023-03-29T01:09:22.528Z,9.12
2023-03-29T01:11:49.785Z,9.51
2023-03-29T01:14:16.198Z,9.30
2023-03-29T01:16:42.906Z,9.55
2023-03-29T01:19:09.443Z,9.24
2023-03-29T01:21:36.272Z,9.20
2023-03-29T01:24:07.168Z,9.41
2023-03-29T01:26:33.788Z,9.34
2023-03-29T01:29:00.137Z,9.24
2023-03-29T01:31:26.494Z,9.21
2023-03-29T01:33:52.880Z,9.39
2023-03-29T01:36:19.308Z,9.19
2023-03-29T01:38:45.797Z,9.45
2023-03-29T01:41:12.522Z,9.53
2023-03-29T01:43:38.882Z,9.54
2023-03-29T01:46:05.269Z,9.87
2023-03-29T01:48:32.162Z,9.32
2023-03-29T01:50:59.864Z,9.41
2023-03-29T01:53:26.456Z,9.79
2023-03-29T01:55:52.869Z,9.79
2023-03-29T01:58:19.287Z,9.82
2023-03-29T02:00:45.893Z,9.61
2023-03-29T02:03:14.911Z,9.65
2023-03-29T02:05:42.342Z,9.51
2023-03-29T02:08:08.808Z,9.53
2023-03-29T02:10:35.190Z,9.21
2023-03-29T02:13:03.068Z,9.36
2023-03-29T02:15:32.727Z,9.23
2023-03-29T02:17:59.188Z,9.56
2023-03-29T02:20:25.768Z,9.66
2023-03-29T02:22:52.590Z,9.69
2023-03-29T02:25:19.013Z,9.68
2023-03-29T02:27:45.898Z,9.65
2023-03-29T02:30:12.354Z,9.78
2023-03-29T02:32:40.559Z,9.69
2023-03-29T02:35:07.065Z,10.21
2023-03-29T02:37:34.427Z,9.93
2023-03-29T02:40:00.888Z,10.00
2023-03-29T02:42:27.289Z,9.55
2023-03-29T02:44:53.958Z,9.77
2023-03-29T02:47:20.514Z,9.78
2023-03-29T02:49:46.912Z,9.59
2023-03-29T02:52:13.352Z,9.71
2023-03-29T02:54:43.609Z,9.91
2023-03-29T02:57:10.299Z,10.27
2023-03-29T02:59:38.434Z,10.20
2023-03-29T03:02:05.244Z,10.24
2023-03-29T03:04:31.936Z,10.18
2023-03-29T03:06:58.329Z,10.17
2023-03-29T03:09:25.453Z,10.15
2023-03-29T03:11:52.443Z,10.38
2023-03-29T03:14:22.771Z,9.99
2023-03-29T03:16:49.599Z,10.28
2023-03-29T03:19:16.028Z,10.13
2023-03-29T03:21:44.117Z,10.36
2023-03-29T03:24:10.514Z,10.23
2023-03-29T03:26:38.824Z,10.34
2023-03-29T03:29:06.590Z,10.43
2023-03-29T03:31:53.831Z,10.55
2023-03-29T03:34:49.712Z,10.43
2023-03-29T03:37:16.107Z,10.30
2023-03-29T03:39:43.436Z,10.36
2023-03-29T03:42:10.652Z,10.21
2023-03-29T03:44:41.845Z,10.00
2023-03-29T03:47:21.692Z,10.03
2023-03-29T03:49:48.313Z,10.21
2023-03-29T03:52:17.365Z,10.06
2023-03-29T03:54:46.546Z,9.73
2023-03-29T03:57:37.351Z,9.77
2023-03-29T04:00:09.646Z,9.66
2023-03-29T04:02:39.091Z,10.03
2023-03-29T04:05:05.583Z,10.04
2023-03-29T04:07:36.741Z,9.65
2023-03-29T04:10:19.193Z,9.93
2023-03-29T04:12:52.209Z,10.05
2023-03-29T04:15:20.690Z,10.15
2023-03-29T04:17:54.812Z,9.70
2023-03-29T04:20:32.685Z,10.03
2023-03-29T04:23:00.031Z,10.21
2023-03-29T04:25:28.413Z,10.12
2023-03-29T04:27:57.702Z,9.98
2023-03-29T04:30:34.828Z,10.05
2023-03-29T04:33:10.351Z,9.76
2023-03-29T04:35:39.844Z,10.17
2023-03-29T04:38:11.297Z,9.88
2023-03-29T04:40:38.704Z,9.77
2023-03-29T04:43:29.815Z,10.13
2023-03-29T04:46:07.854Z,9.56
2023-03-29T04:48:50.797Z,9.66
2023-03-29T04:51:22.725Z,10.21
2023-03-29T04:53:53.460Z,9.69
2023-03-29T04:56:23.021Z,9.75
2023-03-29T04:59:15.368Z,9.94
2023-03-29T05:01:41.916Z,10.15
2023-03-29T05:04:12.039Z,10.12
2023-03-29T05:06:45.141Z,10.02
2023-03-29T05:09:11.535Z,9.94
2023-03-29T05:11:45.388Z,9.75
2023-03-29T05:14:12.800Z,9.68
2023-03-29T05:16:39.307Z,9.98
2023-03-29T05:19:05.853Z,10.00
2023-03-29T05:21:35.844Z,9.96
2023-03-29T05:24:06.559Z,10.32
2023-03-29T05:26:54.670Z,9.86
2023-03-29T05:29:21.682Z,9.61
2023-03-29T05:31:54.124Z,9.69
2023-03-29T05:34:20.669Z,9.73
2023-03-29T05:36:51.825Z,9.78
2023-03-29T05:39:19.347Z,9.87
2023-03-29T05:41:46.496Z,10.22
2023-03-29T05:44:39.017Z,10.09
2023-03-29T05:47:13.628Z,10.14
2023-03-29T05:49:40.103Z,10.24
2023-03-29T05:52:10.849Z,10.14
2023-03-29T05:54:38.133Z,9.78
2023-03-29T05:57:06.136Z,9.95
2023-03-29T05:59:33.780Z,9.75
2023-03-29T06:02:00.634Z,10.12
2023-03-29T06:04:27.166Z,10.22
2023-03-29T06:07:14.795Z,10.09
2023-03-29T06:09:45.610Z,10.27
2023-03-29T06:12:12.302Z,10.35
2023-03-29T06:14:44.141Z,10.33
2023-03-29T06:17:26.530Z,10.52
2023-03-29T06:19:53.540Z,10.48
2023-03-29T06:22:23.697Z,10.40
2023-03-29T06:24:50.241Z,10.78
2023-03-29T06:27:23.724Z,10.68
2023-03-29T06:29:50.599Z,10.65
2023-03-29T06:32:17.644Z,10.76
2023-03-29T06:34:50.876Z,10.82
2023-03-29T06:37:32.490Z,10.17
2023-03-29T06:40:15.060Z,10.59
2023-03-29T06:42:43.103Z,10.64
2023-03-29T06:45:16.016Z,10.76
2023-03-29T06:47:47.079Z,10.71
2023-03-29T06:50:14.653Z,10.74
2023-03-29T06:52:53.846Z,10.73
2023-03-29T06:55:21.707Z,10.86
2023-03-29T06:57:49.110Z,10.70
2023-03-29T07:00:27.786Z,11.01
2023-03-29T07:03:23.276Z,10.48
2023-03-29T07:05:53.033Z,10.89
2023-03-29T07:08:21.307Z,10.83
2023-03-29T07:10:59.545Z,10.40
2023-03-29T07:13:44.580Z,10.54
2023-03-29T07:16:14.467Z,10.92
2023-03-29T07:18:55.158Z,10.84
2023-03-29T07:21:39.966Z,10.86
2023-03-29T07:24:06.834Z,10.59
2023-03-29T07:26:34.961Z,10.68
2023-03-29T07:29:01.398Z,10.98
2023-03-29T07:31:29.597Z,11.17
2023-03-29T07:34:12.952Z,11.00
2023-03-29T07:36:39.957Z,10.65
2023-03-29T07:39:06.556Z,11.10
2023-03-29T07:41:36.055Z,11.43
2023-03-29T07:44:11.624Z,11.57
2023-03-29T07:46:38.468Z,11.16
2023-03-29T07:49:05.611Z,10.88
2023-03-29T07:51:32.103Z,11.01
2023-03-29T07:54:06.706Z,11.01
2023-03-29T07:57:02.265Z,11.05
2023-03-29T07:59:39.547Z,10.89
2023-03-29T08:02:19.219Z,11.17
2023-03-29T08:04:48.963Z,11.38
2023-03-29T08:07:18.427Z,11.01
2023-03-29T08:10:03.600Z,11.44
2023-03-29T08:12:45.795Z,11.25
2023-03-29T08:15:13.245Z,11.46
2023-03-29T08:17:40.824Z,11.50
2023-03-29T08:20:07.304Z,11.57
2023-03-29T08:22:33.776Z,11.66
2023-03-29T08:25:20.421Z,11.19
2023-03-29T08:27:50.673Z,11.33
2023-03-29T08:30:28.083Z,11.65
2023-03-29T08:32:56.469Z,11.64
2023-03-29T08:35:23.083Z,12.08
2023-03-29T08:38:02.491Z,11.67
2023-03-29T08:40:30.036Z,11.72
2023-03-29T08:43:10.963Z,12.07
2023-03-29T08:45:55.852Z,11.91
2023-03-29T08:48:22.460Z,12.08
2023-03-29T08:50:49.733Z,12.17
2023-03-29T08:53:16.311Z,12.15
2023-03-29T08:56:07.436Z,12.51
2023-03-29T08:58:52.580Z,12.38
2023-03-29T09:01:19.644Z,12.48
2023-03-29T09:03:50.590Z,12.54
2023-03-29T09:06:29.338Z,12.58
2023-03-29T09:09:07.870Z,12.72
2023-03-29T09:11:34.312Z,12.28
2023-03-29T09:14:01.041Z,12.90
2023-03-29T09:16:27.748Z,12.53
2023-03-29T09:18:55.214Z,12.72
2023-03-29T09:21:22.310Z,12.61
2023-03-29T09:23:49.508Z,12.78
2023-03-29T09:26:28.920Z,12.92
2023-03-29T09:29:15.516Z,12.78
2023-03-29T09:31:42.029Z,12.93
2023-03-29T09:34:09.038Z,12.85
2023-03-29T09:36:51.394Z,13.35
2023-03-29T09:39:19.836Z,13.44
2023-03-29T09:41:49.531Z,13.66
2023-03-29T09:46:48.271Z,13.81
2023-03-29T09:49:17.221Z,13.64
2023-03-29T09:51:44.190Z,13.57
2023-03-29T09:54:10.905Z,13.81
2023-03-29T09:56:59.888Z,13.66
2023-03-29T09:59:26.385Z,13.99
2023-03-29T10:01:53.042Z,14.29
2023-03-29T10:04:21.460Z,14.41
2023-03-29T10:06:54.704Z,14.70
2023-03-29T10:09:21.944Z,14.73
2023-03-29T10:11:51.733Z,14.64
2023-03-29T10:14:18.414Z,14.62
2023-03-29T10:16:48.132Z,15.10
2023-03-29T10:19:15.176Z,15.39
2023-03-29T10:21:42.324Z,15.24
2023-03-29T10:24:08.790Z,15.32
2023-03-29T10:26:36.190Z,15.12
2023-03-29T10:29:02.650Z,15.08
2023-03-29T10:31:33.068Z,15.38
2023-03-29T10:33:59.630Z,15.49
2023-03-29T10:36:26.350Z,15.53
2023-03-29T10:38:52.751Z,15.76
2023-03-29T10:41:19.166Z,15.48
2023-03-29T10:43:46.177Z,15.79
2023-03-29T10:46:17.743Z,15.07
2023-03-29T10:48:44.535Z,15.76
2023-03-29T10:51:14.001Z,15.40
2023-03-29T10:53:41.137Z,15.64
2023-03-29T10:56:08.121Z,15.59
2023-03-29T10:58:34.567Z,15.13
2023-03-29T11:01:01.731Z,15.76
2023-03-29T11:03:28.655Z,15.81
2023-03-29T11:05:55.155Z,15.58
2023-03-29T11:08:21.533Z,15.45
2023-03-29T11:10:48.174Z,15.00
2023-03-29T11:13:14.549Z,15.59
2023-03-29T11:15:41.038Z,15.41
2023-03-29T11:18:07.634Z,14.79
2023-03-29T11:20:34.047Z,15.21
2023-03-29T11:23:00.589Z,15.15
2023-03-29T11:25:29.074Z,14.95
2023-03-29T11:27:56.151Z,15.20
2023-03-29T11:30:23.888Z,15.05
2023-03-29T11:32:50.857Z,15.28
2023-03-29T11:35:17.699Z,15.50
2023-03-29T11:37:44.141Z,15.62
2023-03-29T11:40:10.523Z,15.66
2023-03-29T11:42:37.089Z,15.87
2023-03-29T11:45:04.896Z,16.03
2023-03-29T11:47:31.342Z,16.10
2023-03-29T11:49:57.814Z,16.10
2023-03-29T11:52:24.397Z,16.28
2023-03-29T11:54:51.535Z,15.87
2023-03-29T11:57:17.928Z,16.24
2023-03-29T11:59:44.390Z,16.13
2023-03-29T12:02:12.272Z,16.24
2023-03-29T12:04:40.614Z,16.34
2023-03-29T12:07:07.038Z,16.08
2023-03-29T12:09:34.139Z,16.07
2023-03-29T12:12:00.531Z,16.75
2023-03-29T12:14:28.201Z,16.51
2023-03-29T12:16:54.875Z,16.67
2023-03-29T12:19:21.322Z,16.94
2023-03-29T12:21:47.940Z,16.18
2023-03-29T12:24:16.363Z,16.10
2023-03-29T12:26:43.023Z,16.35
2023-03-29T12:29:10.264Z,16.94
2023-03-29T12:31:36.845Z,17.07
2023-03-29T12:34:03.416Z,17.09
2023-03-29T12:36:50.272Z,17.26
2023-03-29T12:39:36.931Z,17.04
2023-03-29T12:42:41.865Z,17.36
2023-03-29T12:45:23.457Z,17.25
2023-03-29T12:47:50.246Z,17.11
2023-03-29T12:50:16.685Z,17.05
2023-03-29T12:52:43.177Z,17.55
2023-03-29T12:55:09.785Z,17.15
2023-03-29T12:57:36.199Z,17.12
2023-03-29T13:00:02.667Z,16.80
2023-03-29T13:02:29.072Z,17.21
2023-03-29T13:04:55.610Z,17.16
2023-03-29T13:07:22.234Z,17.23
2023-03-29T13:09:48.598Z,16.49
2023-03-29T13:12:15.814Z,16.82
2023-03-29T13:14:42.817Z,17.15
2023-03-29T13:17:18.102Z,16.73
2023-03-29T13:19:45.765Z,16.49
2023-03-29T13:22:12.262Z,16.89
2023-03-29T13:24:38.632Z,17.14
2023-03-29T13:27:05.214Z,17.22
2023-03-29T13:29:31.546Z,17.36
2023-03-29T13:31:57.896Z,17.40
2023-03-29T13:34:24.224Z,17.11
2023-03-29T13:36:50.615Z,17.68
2023-03-29T13:39:17.135Z,17.71
2023-03-29T13:41:44.224Z,17.71
2023-03-29T13:44:10.599Z,17.60
2023-03-29T13:46:41.054Z,18.01
2023-03-29T13:49:07.669Z,17.59
2023-03-29T13:51:34.211Z,17.71
2023-03-29T13:54:00.900Z,17.95
2023-03-29T13:56:27.623Z,17.95
2023-03-29T13:58:53.992Z,17.92
2023-03-29T14:01:20.779Z,17.89
2023-03-29T14:03:47.512Z,18.10
2023-03-29T14:06:14.015Z,18.32
2023-03-29T14:08:40.606Z,18.26
2023-03-29T14:11:07.083Z,18.07
2023-03-29T14:13:33.452Z,18.56
2023-03-29T14:16:02.854Z,18.69
2023-03-29T14:18:30.508Z,18.29
2023-03-29T14:20:57.234Z,18.07
2023-03-29T14:23:23.856Z,18.39
2023-03-29T14:25:50.286Z,18.47
2023-03-29T14:28:17.144Z,17.80
2023-03-29T14:30:43.614Z,17.39
2023-03-29T14:33:10.074Z,17.40
2023-03-29T14:35:36.953Z,18.09
2023-03-29T14:38:03.935Z,17.91
2023-03-29T14:40:30.850Z,17.78
2023-03-29T14:42:57.352Z,17.90
2023-03-29T14:45:24.081Z,17.92
2023-03-29T14:47:50.701Z,18.10
2023-03-29T14:50:17.184Z,18.08
2023-03-29T14:52:46.390Z,18.33
2023-03-29T14:55:14.105Z,18.38
2023-03-29T14:57:40.477Z,18.38
2023-03-29T15:00:08.883Z,18.34
2023-03-29T15:02:35.426Z,18.39
2023-03-29T15:05:05.101Z,18.21
2023-03-29T15:07:31.638Z,18.46
2023-03-29T15:09:58.549Z,18.30
2023-03-29T15:12:24.941Z,17.94
2023-03-29T15:14:51.672Z,17.51
2023-03-29T15:17:18.059Z,18.17
2023-03-29T15:19:44.465Z,18.17
2023-03-29T15:22:11.283Z,18.31
2023-03-29T15:24:37.749Z,18.50
2023-03-29T15:27:04.238Z,18.43
2023-03-29T15:29:30.578Z,18.41
2023-03-29T15:31:57.022Z,18.29
2023-03-29T15:34:23.955Z,18.22
2023-03-29T15:36:50.529Z,18.11
2023-03-29T15:39:17.359Z,17.98
2023-03-29T15:41:43.781Z,17.95
2023-03-29T15:44:10.234Z,18.07
2023-03-29T15:46:36.958Z,18.18
2023-03-29T15:49:04.968Z,18.16
2023-03-29T15:51:31.445Z,18.12
2023-03-29T15:53:57.752Z,18.12
2023-03-29T15:56:24.323Z,18.03
2023-03-29T15:58:51.041Z,18.14
2023-03-29T16:01:19.215Z,18.09
2023-03-29T16:03:47.858Z,17.70
2023-03-29T16:06:14.637Z,18.19
2023-03-29T16:08:41.873Z,17.97
2023-03-29T16:11:08.462Z,18.14
2023-03-29T16:13:34.851Z,18.09
2023-03-29T16:16:02.185Z,18.15
2023-03-29T16:18:28.898Z,18.29
2023-03-29T16:20:57.791Z,18.06
2023-03-29T16:23:24.597Z,18.13
2023-03-29T16:25:51.209Z,17.97
2023-03-29T16:28:17.832Z,18.26
2023-03-29T16:30:44.344Z,18.37
2023-03-29T16:33:11.263Z,18.16
2023-03-29T16:35:38.315Z,18.07
2023-03-29T16:38:05.033Z,18.19
2023-03-29T16:40:37.420Z,18.29
2023-03-29T16:43:04.583Z,18.36
2023-03-29T16:45:31.130Z,18.37
2023-03-29T16:47:57.719Z,18.44
2023-03-29T16:50:24.702Z,18.20
2023-03-29T16:52:54.077Z,18.35
2023-03-29T16:55:20.594Z,18.44
2023-03-29T16:57:47.442Z,18.69
2023-03-29T17:00:16.996Z,18.57
2023-03-29T17:02:43.598Z,18.30
2023-03-29T17:05:10.314Z,18.14
2023-03-29T17:07:36.771Z,18.25
2023-03-29T17:10:04.778Z,18.31
2023-03-29T17:12:31.170Z,18.26
2023-03-29T17:14:57.710Z,18.38
2023-03-29T17:17:24.187Z,18.35
2023-03-29T17:19:51.208Z,18.09
2023-03-29T17:22:17.614Z,17.91
2023-03-29T17:24:44.006Z,18.13
2023-03-29T17:27:10.404Z,18.24
2023-03-29T17:29:36.823Z,18.00
2023-03-29T17:32:03.206Z,17.91
2023-03-29T17:34:29.979Z,17.97
2023-03-29T17:36:56.434Z,18.04
2023-03-29T17:39:25.140Z,17.99
2023-03-29T17:41:51.686Z,18.03
2023-03-29T17:44:18.279Z,17.91
2023-03-29T17:46:44.799Z,17.92
2023-03-29T17:49:11.340Z,17.89
2023-03-29T17:51:37.903Z,17.90
2023-03-29T17:54:04.460Z,17.59
2023-03-29T17:56:31.915Z,17.67
2023-03-29T17:58:58.628Z,17.58
2023-03-29T18:01:25.237Z,17.85
2023-03-29T18:03:51.766Z,17.72
2023-03-29T18:06:20.244Z,17.76
2023-03-29T18:08:46.610Z,17.82
2023-03-29T18:11:13.873Z,17.63
2023-03-29T18:13:40.353Z,17.71
2023-03-29T18:16:07.102Z,17.73
2023-03-29T18:18:33.754Z,17.77
2023-03-29T18:21:00.690Z,17.57
2023-03-29T18:23:27.082Z,17.73
2023-03-29T18:25:53.441Z,17.43
2023-03-29T18:28:21.377Z,17.27
2023-03-29T18:30:48.623Z,17.17
2023-03-29T18:33:15.566Z,17.25
2023-03-29T18:35:42.553Z,17.32
2023-03-29T18:38:08.928Z,17.30
2023-03-29T18:40:35.419Z,17.46
2023-03-29T18:43:01.835Z,17.52
2023-03-29T18:45:28.321Z,17.34
2023-03-29T18:47:54.701Z,17.25
2023-03-29T18:50:21.160Z,17.27
2023-03-29T18:52:47.575Z,17.06
2023-03-29T18:55:13.953Z,17.06
2023-03-29T18:57:41.027Z,17.07
2023-03-29T19:00:11.949Z,17.34
2023-03-29T19:02:38.394Z,17.14
2023-03-29T19:05:04.886Z,16.81
2023-03-29T19:07:31.460Z,16.75
2023-03-29T19:09:58.159Z,16.90
2023-03-29T19:12:24.657Z,17.01
2023-03-29T19:14:51.073Z,17.23
2023-03-29T19:17:17.424Z,17.19
2023-03-29T19:19:44.381Z,16.98
2023-03-29T19:22:10.932Z,17.47
2023-03-29T19:24:37.309Z,17.24
2023-03-29T19:27:03.811Z,17.11
2023-03-29T19:29:30.665Z,17.14
2023-03-29T19:31:57.143Z,16.96
2023-03-29T19:34:24.283Z,17.21
2023-03-29T19:36:50.808Z,17.24
2023-03-29T19:39:17.373Z,17.16
2023-03-29T19:41:44.152Z,17.22
2023-03-29T19:44:11.102Z,17.24
2023-03-29T19:46:37.605Z,17.13
2023-03-29T19:49:05.685Z,17.05
2023-03-29T19:51:32.490Z,17.32
2023-03-29T19:53:58.865Z,17.07
2023-03-29T19:56:25.704Z,17.33
2023-03-29T19:58:52.323Z,17.50
2023-03-29T20:01:21.742Z,17.26
2023-03-29T20:03:49.494Z,17.42
2023-03-29T20:06:16.598Z,17.19
2023-03-29T20:08:43.069Z,17.19
2023-03-29T20:11:10.469Z,17.39
2023-03-29T20:13:39.912Z,17.26
2023-03-29T20:16:06.333Z,17.31
2023-03-29T20:18:32.791Z,17.09
2023-03-29T20:20:59.672Z,17.17
2023-03-29T20:23:26.661Z,16.84
2023-03-29T20:25:53.426Z,16.94
2023-03-29T20:28:20.141Z,17.08
2023-03-29T20:30:51.016Z,17.15
2023-03-29T20:33:17.466Z,17.24
2023-03-29T20:35:44.246Z,17.09
2023-03-29T20:38:11.761Z,17.16
2023-03-29T20:40:38.687Z,17.08
2023-03-29T20:43:05.109Z,17.01
2023-03-29T20:45:37.272Z,17.19
2023-03-29T20:48:09.324Z,16.87
2023-03-29T20:50:38.323Z,16.82
2023-03-29T20:53:06.231Z,17.09
2023-03-29T20:55:33.336Z,16.79
2023-03-29T20:57:59.749Z,17.00
2023-03-29T21:00:26.110Z,17.17
2023-03-29T21:02:52.968Z,16.92
2023-03-29T21:05:20.073Z,17.13
2023-03-29T21:07:48.086Z,16.85
2023-03-29T21:10:14.514Z,16.96
2023-03-29T21:12:41.106Z,16.59
2023-03-29T21:15:07.981Z,16.99
2023-03-29T21:17:34.375Z,16.86
2023-03-29T21:20:02.574Z,16.73
2023-03-29T21:22:29.337Z,17.02
2023-03-29T21:24:56.424Z,16.88
2023-03-29T21:27:22.921Z,16.98
2023-03-29T21:29:49.528Z,17.03
2023-03-29T21:32:15.920Z,16.27
2023-03-29T21:34:42.292Z,16.91
2023-03-29T21:37:08.680Z,16.46
2023-03-29T21:39:35.019Z,16.76
2023-03-29T21:42:01.658Z,16.67
2023-03-29T21:44:28.567Z,16.44
2023-03-29T21:46:54.984Z,16.67
2023-03-29T21:49:21.425Z,16.68
2023-03-29T21:51:48.111Z,16.52
2023-03-29T21:54:14.505Z,16.78
2023-03-29T21:56:41.098Z,16.42
2023-03-29T21:59:07.468Z,16.67
2023-03-29T22:01:34.001Z,16.87
2023-03-29T22:04:00.491Z,16.55
2023-03-29T22:06:27.244Z,16.50
2023-03-29T22:08:53.636Z,16.60
2023-03-29T22:11:19.994Z,16.63
2023-03-29T22:13:46.415Z,16.33
2023-03-29T22:16:18.897Z,16.54
2023-03-29T22:18:48.972Z,16.04
2023-03-29T22:21:15.402Z,16.13
2023-03-29T22:23:42.223Z,16.04
2023-03-29T22:26:08.683Z,16.16
2023-03-29T22:28:35.548Z,15.65
2023-03-29T22:31:02.185Z,15.79
2023-03-29T22:33:28.762Z,15.77
2023-03-29T22:35:56.073Z,16.03
2023-03-29T22:38:22.453Z,15.93
2023-03-29T22:40:48.822Z,15.95
2023-03-29T22:43:15.422Z,15.79
2023-03-29T22:45:41.845Z,16.00
2023-03-29T22:48:09.164Z,15.92
2023-03-29T22:50:35.785Z,15.69
2023-03-29T22:53:02.144Z,15.76
2023-03-29T22:55:28.542Z,15.98
2023-03-29T22:57:54.895Z,15.83
2023-03-29T23:00:21.285Z,15.58
2023-03-29T23:02:47.681Z,15.80
2023-03-29T23:05:14.061Z,15.41
2023-03-29T23:07:40.419Z,15.55
2023-03-29T23:10:06.867Z,15.51
2023-03-29T23:12:33.306Z,15.55
2023-03-29T23:14:59.723Z,15.32
2023-03-29T23:17:26.197Z,15.33
2023-03-29T23:19:52.827Z,15.66
2023-03-29T23:22:19.227Z,15.30
2023-03-29T23:24:47.278Z,15.53
2023-03-29T23:27:13.714Z,15.61
2023-03-29T23:29:40.087Z,15.43
2023-03-29T23:32:06.479Z,15.55
2023-03-29T23:34:33.110Z,15.55
2023-03-29T23:36:59.687Z,15.46
2023-03-29T23:39:26.107Z,15.84
2023-03-29T23:41:52.488Z,15.76
2023-03-29T23:44:18.864Z,15.49
2023-03-29T23:46:45.302Z,15.77
2023-03-29T23:49:12.177Z,15.61
2023-03-29T23:51:39.099Z,15.61
2023-03-29T23:54:05.555Z,15.47
2023-03-29T23:56:31.933Z,15.60
2023-03-29T23:58:58.343Z,15.44
